createdAt,value
2023-05-25T00:01:34.932Z,11.19
2023-05-25T00:04:39.906Z,11.18
2023-05-25T00:07:42.558Z,11.16
2023-05-25T00:10:44.211Z,11.17
2023-05-25T00:13:46.095Z,11.17
2023-05-25T00:16:52.056Z,11.17
2023-05-25T00:19:57.979Z,11.14
2023-05-25T00:23:02.342Z,11.14
2023-05-25T00:26:04.543Z,11.12
2023-05-25T00:29:07.250Z,11.15
2023-05-25T00:32:09.394Z,11.15
2023-05-25T00:35:12.032Z,11.15
2023-05-25T00:38:16.265Z,11.11
2023-05-25T00:41:19.087Z,11.16
2023-05-25T00:44:22.057Z,11.17
2023-05-25T00:47:25.134Z,11.20
2023-05-25T00:50:45.989Z,11.19
2023-05-25T00:53:48.126Z,11.20
2023-05-25T00:57:02.566Z,11.18
2023-05-25T01:00:11.324Z,11.22
2023-05-25T01:03:17.734Z,11.20
2023-05-25T01:06:22.692Z,11.21
2023-05-25T01:09:27.235Z,11.22
2023-05-25T01:12:31.234Z,11.19
2023-05-25T01:15:33.510Z,11.18
2023-05-25T01:18:36.128Z,11.15
2023-05-25T01:21:55.024Z,11.13
2023-05-25T01:25:02.550Z,11.06
2023-05-25T01:28:09.418Z,11.07
2023-05-25T01:31:12.394Z,11.03
2023-05-25T01:34:15.955Z,10.98
2023-05-25T01:37:20.419Z,10.95
2023-05-25T01:40:23.676Z,10.93
2023-05-25T01:43:25.565Z,10.89
2023-05-25T01:46:37.004Z,10.91
2023-05-25T01:49:52.175Z,10.91
2023-05-25T01:53:03.174Z,10.89
2023-05-25T01:56:11.620Z,10.91
2023-05-25T01:59:16.488Z,10.91
2023-05-25T02:02:19.898Z,10.92
2023-05-25T02:05:21.507Z,10.92
2023-05-25T02:08:23.837Z,10.91
2023-05-25T02:11:26.537Z,10.90
2023-05-25T02:14:29.426Z,10.91
2023-05-25T02:17:31.570Z,10.90
2023-05-25T02:20:34.437Z,10.86
2023-05-25T02:23:36.098Z,10.87
2023-05-25T02:26:41.485Z,10.80
2023-05-25T02:29:43.976Z,10.85
2023-05-25T02:32:46.174Z,10.85
2023-05-25T02:35:49.428Z,10.87
2023-05-25T02:38:52.182Z,10.88
2023-05-25T02:41:54.565Z,10.88
2023-05-25T02:44:56.218Z,10.88
2023-05-25T02:47:58.449Z,10.86
2023-05-25T02:51:00.693Z,10.84
2023-05-25T02:54:03.016Z,10.83
2023-05-25T02:57:08.359Z,10.82
2023-05-25T03:00:12.433Z,10.80
2023-05-25T03:03:14.442Z,10.75
2023-05-25T03:06:17.617Z,10.73
2023-05-25T03:09:20.902Z,10.72
2023-05-25T03:12:24.933Z,10.70
2023-05-25T03:15:27.229Z,10.67
2023-05-25T03:18:29.350Z,10.62
2023-05-25T03:21:33.114Z,10.57
2023-05-25T03:24:35.457Z,10.52
2023-05-25T03:27:40.202Z,10.47
2023-05-25T03:30:43.109Z,10.43
2023-05-25T03:33:45.660Z,10.38
2023-05-25T03:36:49.223Z,10.37
2023-05-25T03:39:52.948Z,10.38
2023-05-25T03:42:54.908Z,10.35
2023-05-25T03:45:56.723Z,10.35
2023-05-25T03:48:58.347Z,10.32
2023-05-25T03:52:01.360Z,10.34
2023-05-25T03:55:05.219Z,10.32
2023-05-25T03:58:06.886Z,10.34
2023-05-25T04:01:10.578Z,10.35
2023-05-25T04:04:12.256Z,10.38
2023-05-25T04:07:14.348Z,10.38
2023-05-25T04:10:16.205Z,10.40
2023-05-25T04:13:18.280Z,10.42
2023-05-25T04:16:21.835Z,10.45
2023-05-25T04:19:24.146Z,10.48
2023-05-25T04:22:26.601Z,10.51
2023-05-25T04:25:32.179Z,10.54
2023-05-25T04:28:34.071Z,10.55
2023-05-25T04:31:46.277Z,10.63
2023-05-25T04:34:48.648Z,10.69
2023-05-25T04:37:56.970Z,10.72
2023-05-25T04:41:02.646Z,10.74
2023-05-25T04:44:09.207Z,10.78
2023-05-25T04:47:19.750Z,10.83
2023-05-25T04:50:21.560Z,10.89
2023-05-25T04:53:23.270Z,10.92
2023-05-25T04:56:26.853Z,10.91
2023-05-25T04:59:28.516Z,10.98
2023-05-25T05:02:30.965Z,11.02
2023-05-25T05:05:35.794Z,11.07
2023-05-25T05:08:39.226Z,11.12
2023-05-25T05:11:41.526Z,11.16
2023-05-25T05:14:43.436Z,11.20
2023-05-25T05:17:45.141Z,11.24
2023-05-25T05:20:48.526Z,11.29
2023-05-25T05:23:51.852Z,11.35
2023-05-25T05:26:58.367Z,11.39
2023-05-25T05:30:06.624Z,11.46
2023-05-25T05:33:08.853Z,11.51
2023-05-25T05:36:19.387Z,11.57
2023-05-25T05:39:21.147Z,11.62
2023-05-25T05:42:23.318Z,11.69
2023-05-25T05:45:24.962Z,11.76
2023-05-25T05:48:26.704Z,11.84
2023-05-25T05:51:30.220Z,11.90
2023-05-25T05:54:32.713Z,11.96
2023-05-25T05:57:40.312Z,12.02
2023-05-25T06:00:42.351Z,12.10
2023-05-25T06:03:45.650Z,12.14
2023-05-25T06:06:47.366Z,12.16
2023-05-25T06:09:49.489Z,12.26
2023-05-25T06:12:51.759Z,12.30
2023-05-25T06:15:53.985Z,12.36
2023-05-25T06:18:59.006Z,12.44
2023-05-25T06:22:01.900Z,12.49
2023-05-25T06:25:04.648Z,12.55
2023-05-25T06:28:06.824Z,12.67
2023-05-25T06:31:08.491Z,12.78
2023-05-25T06:34:11.322Z,12.86
2023-05-25T06:37:14.890Z,12.92
2023-05-25T06:40:17.143Z,13.01
2023-05-25T06:43:21.386Z,13.09
2023-05-25T06:46:43.916Z,13.16
2023-05-25T06:49:45.696Z,13.21
2023-05-25T06:52:48.279Z,13.27
2023-05-25T06:55:50.002Z,13.27
2023-05-25T06:58:52.053Z,13.35
2023-05-25T07:01:54.122Z,13.44
2023-05-25T07:04:56.958Z,13.50
2023-05-25T07:07:59.056Z,13.56
2023-05-25T07:11:01.170Z,13.62
2023-05-25T07:14:05.266Z,13.66
2023-05-25T07:17:07.376Z,13.71
2023-05-25T07:20:13.216Z,13.78
2023-05-25T07:23:15.040Z,13.83
2023-05-25T07:26:17.166Z,13.86
2023-05-25T07:29:19.235Z,13.94
2023-05-25T07:32:21.034Z,13.96
2023-05-25T07:35:22.799Z,14.04
2023-05-25T07:38:24.939Z,14.11
2023-05-25T07:41:27.408Z,14.17
2023-05-25T07:44:30.137Z,14.26
2023-05-25T07:47:31.922Z,14.30
2023-05-25T07:50:34.427Z,14.39
2023-05-25T07:53:36.444Z,14.52
2023-05-25T07:56:39.824Z,14.60
2023-05-25T07:59:41.563Z,14.64
2023-05-25T08:02:44.090Z,14.78
2023-05-25T08:05:46.588Z,14.90
2023-05-25T08:08:49.991Z,15.02
2023-05-25T08:11:55.983Z,15.09
2023-05-25T08:15:06.182Z,15.22
2023-05-25T08:18:08.392Z,15.32
2023-05-25T08:21:10.542Z,15.38
2023-05-25T08:24:12.236Z,15.44
2023-05-25T08:27:14.646Z,15.50
2023-05-25T08:30:17.011Z,15.51
2023-05-25T08:33:18.649Z,15.63
2023-05-25T08:36:20.218Z,15.73
2023-05-25T08:39:23.939Z,15.69
2023-05-25T08:42:26.412Z,15.72
2023-05-25T08:45:35.679Z,15.80
2023-05-25T08:48:42.507Z,15.86
2023-05-25T08:51:54.699Z,15.90
2023-05-25T08:55:02.709Z,15.96
2023-05-25T08:58:32.971Z,16.04
2023-05-25T09:01:42.188Z,16.10
2023-05-25T09:04:44.990Z,16.19
2023-05-25T09:07:47.897Z,16.28
2023-05-25T09:10:52.327Z,16.34
2023-05-25T09:13:54.254Z,16.38
2023-05-25T09:16:58.292Z,16.43
2023-05-25T09:20:00.015Z,16.47
2023-05-25T09:23:03.184Z,16.46
2023-05-25T09:26:05.446Z,16.49
2023-05-25T09:29:07.088Z,16.58
2023-05-25T09:32:09.590Z,16.64
2023-05-25T09:35:13.553Z,16.73
2023-05-25T09:38:16.774Z,16.75
2023-05-25T09:41:19.910Z,16.82
2023-05-25T09:44:22.039Z,16.84
2023-05-25T09:47:24.126Z,16.87
2023-05-25T09:50:29.911Z,16.92
2023-05-25T09:53:32.134Z,16.98
2023-05-25T09:56:34.703Z,17.01
2023-05-25T09:59:36.857Z,17.07
2023-05-25T10:02:39.004Z,17.13
2023-05-25T10:05:41.254Z,17.18
2023-05-25T10:08:48.980Z,17.24
2023-05-25T10:11:52.949Z,17.27
2023-05-25T10:14:55.101Z,17.33
2023-05-25T10:17:58.851Z,17.38
2023-05-25T10:21:04.408Z,17.38
2023-05-25T10:24:14.991Z,17.50
2023-05-25T10:27:28.041Z,17.54
2023-05-25T10:30:32.793Z,17.66
2023-05-25T10:33:34.798Z,17.67
2023-05-25T10:36:38.231Z,17.74
2023-05-25T10:39:43.030Z,17.79
2023-05-25T10:42:45.589Z,17.82
2023-05-25T10:45:48.665Z,17.92
2023-05-25T10:49:00.606Z,17.98
2023-05-25T10:52:06.208Z,18.06
2023-05-25T10:55:09.310Z,18.09
2023-05-25T10:58:16.177Z,18.18
2023-05-25T11:01:18.665Z,18.22
2023-05-25T11:04:20.701Z,18.32
2023-05-25T11:07:22.824Z,18.42
2023-05-25T11:10:50.378Z,18.51
2023-05-25T11:13:55.006Z,18.60
2023-05-25T11:17:18.329Z,18.75
2023-05-25T11:20:27.640Z,18.86
2023-05-25T11:23:30.737Z,19.01
2023-05-25T11:26:33.983Z,19.06
2023-05-25T11:29:37.277Z,19.15
2023-05-25T11:32:50.735Z,19.25
2023-05-25T11:35:55.220Z,19.36
2023-05-25T11:42:05.080Z,19.39
2023-05-25T11:45:11.178Z,19.44
2023-05-25T11:48:14.752Z,19.56
2023-05-25T11:51:16.961Z,19.64
2023-05-25T11:54:40.436Z,19.72
2023-05-25T11:57:42.720Z,19.76
2023-05-25T12:00:44.599Z,19.82
2023-05-25T12:03:49.158Z,19.89
2023-05-25T12:06:50.861Z,19.99
2023-05-25T12:10:07.461Z,20.08
2023-05-25T12:13:11.339Z,20.18
2023-05-25T12:16:13.691Z,20.22
2023-05-25T12:19:16.983Z,20.41
2023-05-25T12:22:19.107Z,20.47
2023-05-25T12:25:24.450Z,20.70
2023-05-25T12:28:26.889Z,20.87
2023-05-25T12:31:31.632Z,20.98
2023-05-25T12:34:34.370Z,20.99
2023-05-25T12:37:36.651Z,21.02
2023-05-25T12:40:38.422Z,21.12
2023-05-25T12:43:43.111Z,21.09
2023-05-25T12:46:45.125Z,21.05
2023-05-25T12:49:51.276Z,21.02
2023-05-25T12:53:02.558Z,21.20
2023-05-25T12:56:04.628Z,21.39
2023-05-25T12:59:15.987Z,21.54
2023-05-25T13:02:18.171Z,21.65
2023-05-25T13:05:32.902Z,21.74
2023-05-25T13:08:34.660Z,21.89
2023-05-25T13:11:37.271Z,21.95
2023-05-25T13:14:38.879Z,22.11
2023-05-25T13:17:43.381Z,22.39
2023-05-25T13:20:49.882Z,22.73
2023-05-25T13:23:53.360Z,23.00
2023-05-25T13:26:54.987Z,23.22
2023-05-25T13:29:58.363Z,23.42
2023-05-25T13:33:00.737Z,23.69
2023-05-25T13:36:09.557Z,23.97
2023-05-25T13:39:13.717Z,24.30
2023-05-25T13:42:16.004Z,24.63
2023-05-25T13:45:18.835Z,24.75
2023-05-25T13:48:21.622Z,24.61
2023-05-25T13:51:23.546Z,24.24
2023-05-25T13:54:25.199Z,23.97
2023-05-25T13:57:27.265Z,23.88
2023-05-25T14:00:29.829Z,23.69
2023-05-25T14:03:32.294Z,23.69
2023-05-25T14:06:34.994Z,23.74
2023-05-25T14:09:36.757Z,23.95
2023-05-25T14:12:38.517Z,24.25
2023-05-25T14:15:40.683Z,24.54
2023-05-25T14:18:42.983Z,24.85
2023-05-25T14:21:45.526Z,25.09
2023-05-25T14:24:48.024Z,25.20
2023-05-25T14:27:50.142Z,25.37
2023-05-25T14:30:51.881Z,25.58
2023-05-25T14:33:53.841Z,25.78
2023-05-25T14:36:55.940Z,26.05
2023-05-25T14:39:58.120Z,25.93
2023-05-25T14:42:59.749Z,25.84
2023-05-25T14:46:01.588Z,25.73
2023-05-25T14:49:03.833Z,25.68
2023-05-25T14:52:06.236Z,25.81
2023-05-25T14:55:09.267Z,26.02
2023-05-25T14:58:11.737Z,26.21
2023-05-25T15:01:15.039Z,26.27
2023-05-25T15:04:17.685Z,26.36
2023-05-25T15:07:20.653Z,26.39
2023-05-25T15:10:22.826Z,26.28
2023-05-25T15:13:24.402Z,26.05
2023-05-25T15:19:28.750Z,25.98
2023-05-25T15:22:30.968Z,25.93
2023-05-25T15:25:35.528Z,25.89
2023-05-25T15:28:38.233Z,26.08
2023-05-25T15:31:39.924Z,26.13
2023-05-25T15:34:42.055Z,26.26
2023-05-25T15:37:44.147Z,26.51
2023-05-25T15:40:45.791Z,26.60
2023-05-25T15:43:58.854Z,26.77
2023-05-25T15:47:00.692Z,26.75
2023-05-25T15:50:02.358Z,26.77
2023-05-25T15:53:04.236Z,26.62
2023-05-25T15:56:06.484Z,26.50
2023-05-25T15:59:08.665Z,26.43
2023-05-25T16:02:10.604Z,26.38
2023-05-25T16:05:12.376Z,26.22
2023-05-25T16:08:14.354Z,26.03
2023-05-25T16:11:17.333Z,25.79
2023-05-25T16:14:18.959Z,25.63
2023-05-25T16:17:20.715Z,25.48
2023-05-25T16:20:22.905Z,25.35
2023-05-25T16:23:25.371Z,25.21
2023-05-25T16:26:27.248Z,24.99
2023-05-25T16:29:29.503Z,24.80
2023-05-25T16:32:32.670Z,24.65
2023-05-25T16:35:34.924Z,24.50
2023-05-25T16:38:36.707Z,24.35
2023-05-25T16:41:38.383Z,24.22
2023-05-25T16:44:40.002Z,24.02
2023-05-25T16:47:41.933Z,23.78
2023-05-25T16:50:43.818Z,23.65
2023-05-25T16:53:46.113Z,23.56
2023-05-25T16:56:48.189Z,23.49
2023-05-25T16:59:51.744Z,23.36
2023-05-25T17:02:55.240Z,23.28
2023-05-25T17:05:57.407Z,23.21
2023-05-25T17:09:00.938Z,23.22
2023-05-25T17:12:03.721Z,23.15
2023-05-25T17:15:05.820Z,23.07
2023-05-25T17:18:08.119Z,22.98
2023-05-25T17:21:09.842Z,22.93
2023-05-25T17:24:11.693Z,22.83
2023-05-25T17:27:13.738Z,22.75
2023-05-25T17:30:15.956Z,22.69
2023-05-25T17:33:18.045Z,22.61
2023-05-25T17:36:19.687Z,22.53
2023-05-25T17:39:21.344Z,22.43
2023-05-25T17:42:22.961Z,22.33
2023-05-25T17:45:25.611Z,22.23
2023-05-25T17:48:27.878Z,22.17
2023-05-25T17:51:30.238Z,22.13
2023-05-25T17:54:32.156Z,22.05
2023-05-25T17:57:34.223Z,21.98
2023-05-25T18:00:35.864Z,21.89
2023-05-25T18:03:37.641Z,21.77
2023-05-25T18:06:39.340Z,21.69
2023-05-25T18:09:41.017Z,21.63
2023-05-25T18:12:44.545Z,21.54
2023-05-25T18:15:46.784Z,21.42
2023-05-25T18:18:48.997Z,21.33
2023-05-25T18:21:52.668Z,21.22
2023-05-25T18:24:54.442Z,21.13
2023-05-25T18:27:56.704Z,21.00
2023-05-25T18:30:58.405Z,20.98
2023-05-25T18:34:00.364Z,20.89
2023-05-25T18:37:02.092Z,20.76
2023-05-25T18:40:04.395Z,20.67
2023-05-25T18:43:07.785Z,20.58
2023-05-25T18:46:09.973Z,20.49
2023-05-25T18:49:11.775Z,20.39
2023-05-25T18:52:14.256Z,20.25
2023-05-25T18:55:16.224Z,20.16
2023-05-25T18:58:18.856Z,20.05
2023-05-25T19:01:21.042Z,19.92
2023-05-25T19:04:22.933Z,19.80
2023-05-25T19:07:24.748Z,19.67
2023-05-25T19:10:27.479Z,19.52
2023-05-25T19:13:29.353Z,19.35
2023-05-25T19:16:31.577Z,19.19
2023-05-25T19:19:33.618Z,19.04
2023-05-25T19:22:35.785Z,18.85
2023-05-25T19:25:37.577Z,18.73
2023-05-25T19:28:39.700Z,18.61
2023-05-25T19:31:41.392Z,18.44
2023-05-25T19:34:43.044Z,18.34
2023-05-25T19:37:44.691Z,18.20
2023-05-25T19:40:46.961Z,18.10
2023-05-25T19:43:49.014Z,17.97
2023-05-25T19:46:51.217Z,17.86
2023-05-25T19:49:57.537Z,17.75
2023-05-25T19:53:01.108Z,17.65
2023-05-25T19:56:04.075Z,17.51
2023-05-25T19:59:06.251Z,17.49
2023-05-25T20:02:08.023Z,17.44
2023-05-25T20:05:11.644Z,17.38
2023-05-25T20:08:13.430Z,17.28
2023-05-25T20:11:15.222Z,17.18
2023-05-25T20:14:19.306Z,17.08
2023-05-25T20:17:22.289Z,16.96
2023-05-25T20:20:23.995Z,16.90
2023-05-25T20:23:26.111Z,16.79
2023-05-25T20:26:28.228Z,16.69
2023-05-25T20:29:31.442Z,16.62
2023-05-25T20:32:33.611Z,16.52
2023-05-25T20:35:37.841Z,16.42
2023-05-25T20:38:39.538Z,16.35
2023-05-25T20:41:41.848Z,16.26
2023-05-25T20:44:43.892Z,16.17
2023-05-25T20:47:46.108Z,16.10
2023-05-25T20:50:48.362Z,16.02
2023-05-25T20:53:50.659Z,15.94
2023-05-25T20:56:53.416Z,15.85
2023-05-25T20:59:59.569Z,15.78
2023-05-25T21:03:02.587Z,15.71
2023-05-25T21:06:05.394Z,15.63
2023-05-25T21:09:07.538Z,15.56
2023-05-25T21:12:09.553Z,15.50
2023-05-25T21:15:11.864Z,15.45
2023-05-25T21:18:13.955Z,15.41
2023-05-25T21:21:16.187Z,15.37
2023-05-25T21:24:18.352Z,15.31
2023-05-25T21:27:21.013Z,15.27
2023-05-25T21:30:24.230Z,15.24
2023-05-25T21:33:25.954Z,15.20
2023-05-25T21:36:28.005Z,15.19
2023-05-25T21:39:30.752Z,15.18
2023-05-25T21:42:32.378Z,15.17
2023-05-25T21:45:34.924Z,15.17
2023-05-25T21:48:36.838Z,15.19
2023-05-25T21:51:38.771Z,15.18
2023-05-25T21:54:41.546Z,15.18
2023-05-25T21:57:43.666Z,15.18
2023-05-25T22:00:45.825Z,15.18
2023-05-25T22:03:48.529Z,15.19
2023-05-25T22:06:51.150Z,15.20
2023-05-25T22:09:53.294Z,15.21
2023-05-25T22:12:55.130Z,15.23
2023-05-25T22:15:57.119Z,15.21
2023-05-25T22:18:59.217Z,15.23
2023-05-25T22:22:01.874Z,15.19
2023-05-25T22:25:04.900Z,15.24
2023-05-25T22:28:07.361Z,15.26
2023-05-25T22:31:09.253Z,15.29
2023-05-25T22:34:11.404Z,15.30
2023-05-25T22:37:14.103Z,15.32
2023-05-25T22:40:16.934Z,15.30
2023-05-25T22:43:18.991Z,15.29
2023-05-25T22:46:21.154Z,15.24
2023-05-25T22:49:23.279Z,15.16
2023-05-25T22:52:25.497Z,15.12
2023-05-25T22:55:27.624Z,15.07
2023-05-25T22:58:29.702Z,15.02
2023-05-25T23:01:32.116Z,14.94
2023-05-25T23:04:37.418Z,14.85
2023-05-25T23:07:39.584Z,14.77
2023-05-25T23:10:41.718Z,14.70
2023-05-25T23:13:43.849Z,14.65
2023-05-25T23:16:48.580Z,14.59
2023-05-25T23:19:50.817Z,14.59
2023-05-25T23:22:52.408Z,14.57
2023-05-25T23:25:54.101Z,14.55
2023-05-25T23:28:56.351Z,14.52
2023-05-25T23:31:58.150Z,14.50
2023-05-25T23:35:00.777Z,14.45
2023-05-25T23:38:02.954Z,14.38
2023-05-25T23:41:04.832Z,14.30
2023-05-25T23:44:07.691Z,14.22
2023-05-25T23:47:09.699Z,14.18
2023-05-25T23:50:12.351Z,14.13
2023-05-25T23:53:14.521Z,14.11
2023-05-25T23:56:17.329Z,14.04
2023-05-25T23:59:19.931Z,14.01
